Time;durP1;ratioP1;P1;durP2;ratioP2;P2;SDS_P1;SDS_P2;PMS_P1;PMS_P2;Temp;Humidity;BMP_temperature;BMP_pressure;BME280_temperature;BME280_humidity;BME280_pressure;Samples;Min_cycle;Max_cycle;Signal;HPM_P1;HPM_P2
2021/07/05 00:00:34;;;;;;;1.38;0.95;;;26.30;50.50;;;;;;5088339;28;20024;-60
2021/07/05 00:03:00;;;;;;;1.60;0.90;;;26.30;50.50;;;;;;5088597;28;20451;-59
2021/07/05 00:05:26;;;;;;;1.42;0.80;;;26.30;50.50;;;;;;5089180;28;20039;-59
2021/07/05 00:07:52;;;;;;;1.27;0.80;;;26.30;50.40;;;;;;5089512;28;20110;-61
2021/07/05 00:10:23;;;;;;;1.08;0.80;;;26.30;50.50;;;;;;5089683;28;20052;-61
2021/07/05 00:12:49;;;;;;;1.25;0.90;;;26.30;50.50;;;;;;5087630;28;20069;-61
2021/07/05 00:15:21;;;;;;;1.38;0.80;;;26.30;50.50;;;;;;5095031;28;20039;-60
2021/07/05 00:17:49;;;;;;;1.17;0.80;;;26.30;50.50;;;;;;5108628;28;20573;-60
2021/07/05 00:20:15;;;;;;;1.13;0.88;;;26.30;50.50;;;;;;5108879;28;20446;-60
2021/07/05 00:22:41;;;;;;;1.15;0.80;;;26.30;50.50;;;;;;5088806;28;20025;-61
2021/07/05 00:25:07;;;;;;;0.98;0.70;;;26.30;50.50;;;;;;5088896;28;20057;-60
2021/07/05 00:27:33;;;;;;;1.00;0.80;;;26.30;50.50;;;;;;5088526;28;20504;-60
2021/07/05 00:29:59;;;;;;;1.70;0.80;;;26.20;51.00;;;;;;5070496;28;20364;-60
2021/07/05 00:32:24;;;;;;;1.15;0.80;;;26.20;50.40;;;;;;5088438;28;20372;-60
2021/07/05 00:34:50;;;;;;;0.75;0.73;;;26.20;50.50;;;;;;5086209;28;20201;-60
2021/07/05 00:37:16;;;;;;;0.80;0.68;;;26.20;50.50;;;;;;5090320;28;20043;-60
2021/07/05 00:39:41;;;;;;;0.68;0.65;;;26.20;50.50;;;;;;5089170;28;20036;-61
2021/07/05 00:42:07;;;;;;;0.93;0.80;;;26.20;50.50;;;;;;5086488;28;20099;-61
2021/07/05 00:44:33;;;;;;;1.25;0.80;;;26.20;50.50;;;;;;5085249;28;20421;-60
2021/07/05 00:46:58;;;;;;;1.05;0.80;;;26.20;50.50;;;;;;5094581;28;20199;-60
2021/07/05 00:49:24;;;;;;;0.77;0.65;;;26.20;50.50;;;;;;5088333;28;20031;-61
2021/07/05 00:51:50;;;;;;;0.73;0.60;;;26.20;50.50;;;;;;5088436;28;20035;-61
2021/07/05 00:54:16;;;;;;;1.35;0.80;;;26.10;50.50;;;;;;5087900;28;20498;-62
2021/07/05 00:56:42;;;;;;;1.00;0.70;;;26.10;50.50;;;;;;5092376;28;20062;-60
2021/07/05 00:59:08;;;;;;;0.93;0.80;;;26.10;50.50;;;;;;5082687;28;20043;-60
2021/07/05 01:01:34;;;;;;;0.90;0.73;;;26.10;50.50;;;;;;5093766;28;20047;-60
2021/07/05 01:04:00;;;;;;;0.85;0.80;;;26.10;50.50;;;;;;5094652;28;20028;-60
2021/07/05 01:06:27;;;;;;;1.60;0.90;;;26.10;50.50;;;;;;5089810;28;20035;-60
2021/07/05 01:08:53;;;;;;;0.73;0.70;;;26.10;50.50;;;;;;5105136;28;20024;-60
2021/07/05 01:11:21;;;;;;;0.90;0.70;;;26.10;50.50;;;;;;5089168;28;20035;-60
2021/07/05 01:13:47;;;;;;;0.50;0.50;;;26.10;50.50;;;;;;5086043;28;20028;-60
2021/07/05 01:16:13;;;;;;;0.73;0.70;;;26.10;50.50;;;;;;5088587;28;20032;-60
2021/07/05 01:18:38;;;;;;;1.20;0.70;;;26.10;50.50;;;;;;5087644;28;20071;-61
2021/07/05 01:21:04;;;;;;;0.82;0.65;;;26.10;50.50;;;;;;5088105;28;20047;-60
2021/07/05 01:23:30;;;;;;;1.60;0.80;;;26.10;50.50;;;;;;5070961;28;20131;-61
2021/07/05 01:25:56;;;;;;;0.95;0.70;;;26.10;50.50;;;;;;5088679;28;20043;-61
2021/07/05 01:28:22;;;;;;;2.15;0.70;;;26.10;50.60;;;;;;5087711;28;20093;-61
2021/07/05 01:30:48;;;;;;;1.10;0.80;;;26.10;50.60;;;;;;5079539;28;20048;-61
2021/07/05 01:33:15;;;;;;;0.95;0.82;;;26.00;50.50;;;;;;5086356;28;20138;-61
2021/07/05 01:35:42;;;;;;;0.88;0.60;;;26.00;50.50;;;;;;5087915;28;20375;-60
2021/07/05 01:38:20;;;;;;;0.95;0.70;;;26.10;50.60;;;;;;5088069;28;20012;-60
2021/07/05 01:40:53;;;;;;;0.75;0.75;;;26.00;50.60;;;;;;5088652;28;20028;-60
2021/07/05 01:43:19;;;;;;;0.60;0.60;;;26.00;50.60;;;;;;5094535;28;20110;-60
2021/07/05 01:45:44;;;;;;;1.15;0.70;;;26.00;50.60;;;;;;5071605;28;20465;-62
2021/07/05 01:48:10;;;;;;;0.80;0.70;;;26.00;50.60;;;;;;5087335;28;20103;-60
2021/07/05 01:50:36;;;;;;;1.00;0.70;;;26.00;50.60;;;;;;5087320;28;20039;-60
2021/07/05 01:53:02;;;;;;;0.70;0.60;;;26.00;50.60;;;;;;5088842;28;20040;-61
2021/07/05 01:55:31;;;;;;;0.88;0.73;;;26.00;50.60;;;;;;5086250;28;20509;-60
2021/07/05 01:57:59;;;;;;;1.13;0.70;;;26.00;50.60;;;;;;5087111;28;20400;-61
2021/07/05 02:00:27;;;;;;;0.80;0.60;;;26.00;50.60;;;;;;5087317;28;20104;-62
2021/07/05 02:02:53;;;;;;;0.80;0.70;;;26.00;50.60;;;;;;5086610;28;20036;-60
2021/07/05 02:05:19;;;;;;;1.05;0.80;;;26.00;50.60;;;;;;5086429;28;20423;-60
2021/07/05 02:07:46;;;;;;;0.85;0.60;;;25.90;50.60;;;;;;5086150;28;20036;-60
2021/07/05 02:10:19;;;;;;;1.00;0.60;;;25.90;50.60;;;;;;5101798;28;20036;-61
2021/07/05 02:12:45;;;;;;;1.08;0.80;;;25.90;50.60;;;;;;5085563;28;20020;-60
2021/07/05 02:15:13;;;;;;;0.70;0.60;;;25.90;50.60;;;;;;5086931;28;20312;-61
2021/07/05 02:17:39;;;;;;;0.77;0.70;;;25.90;50.60;;;;;;5079057;28;20344;-61
2021/07/05 02:20:11;;;;;;;0.77;0.68;;;25.90;50.60;;;;;;5094606;28;20034;-60
2021/07/05 02:22:37;;;;;;;0.95;0.63;;;25.90;50.60;;;;;;5097079;28;20032;-61
2021/07/05 02:25:06;;;;;;;0.80;0.70;;;25.90;50.60;;;;;;5086613;28;20101;-60
2021/07/05 02:27:32;;;;;;;0.95;0.70;;;25.90;50.60;;;;;;5067372;28;20032;-60
2021/07/05 02:29:58;;;;;;;0.80;0.77;;;25.90;50.60;;;;;;5080292;28;20483;-60
2021/07/05 02:32:23;;;;;;;1.33;0.75;;;25.90;50.70;;;;;;5091121;28;20031;-60
2021/07/05 02:34:49;;;;;;;0.70;0.60;;;25.90;50.60;;;;;;5084948;28;20100;-60
2021/07/05 02:37:14;;;;;;;0.90;0.70;;;25.90;50.70;;;;;;5087354;28;20037;-60
2021/07/05 02:39:40;;;;;;;0.60;0.60;;;25.80;50.60;;;;;;5087196;28;20024;-61
2021/07/05 02:42:06;;;;;;;1.00;0.70;;;25.80;50.60;;;;;;5093983;28;20032;-60
2021/07/05 02:44:32;;;;;;;0.77;0.60;;;25.90;50.70;;;;;;5095754;28;20028;-61
2021/07/05 02:46:57;;;;;;;1.10;0.90;;;25.80;50.60;;;;;;5087139;28;20326;-61
2021/07/05 02:49:23;;;;;;;0.75;0.70;;;25.80;50.60;;;;;;5085091;28;20032;-60
2021/07/05 02:51:48;;;;;;;0.80;0.70;;;25.80;50.60;;;;;;5101094;28;20524;-60
2021/07/05 02:54:14;;;;;;;0.98;0.60;;;25.80;50.60;;;;;;5093497;28;20020;-61
2021/07/05 02:56:40;;;;;;;0.85;0.70;;;25.80;50.60;;;;;;5086774;28;20452;-60
2021/07/05 02:59:06;;;;;;;1.05;0.70;;;25.80;50.60;;;;;;5086020;28;20020;-61
2021/07/05 03:01:31;;;;;;;1.17;0.80;;;25.80;50.60;;;;;;5090631;28;20032;-60
2021/07/05 03:03:57;;;;;;;0.98;0.73;;;25.80;50.60;;;;;;5083986;28;20032;-60
2021/07/05 03:06:23;;;;;;;0.70;0.50;;;25.80;50.70;;;;;;5084149;28;20028;-60
2021/07/05 03:08:48;;;;;;;0.90;0.70;;;25.80;50.60;;;;;;5085778;28;20032;-60
2021/07/05 03:11:15;;;;;;;0.80;0.60;;;25.80;50.70;;;;;;5090900;28;20110;-60
2021/07/05 03:13:40;;;;;;;0.60;0.60;;;25.80;50.60;;;;;;5084885;28;20062;-60
2021/07/05 03:16:06;;;;;;;0.70;0.70;;;25.80;50.70;;;;;;5085863;28;20036;-60
2021/07/05 03:18:32;;;;;;;1.10;0.73;;;25.80;50.70;;;;;;5086304;28;20039;-62
2021/07/05 03:20:58;;;;;;;0.88;0.70;;;25.80;50.70;;;;;;5086832;28;20182;-60
2021/07/05 03:23:25;;;;;;;0.80;0.75;;;25.70;50.70;;;;;;5086856;28;20024;-61
2021/07/05 03:25:51;;;;;;;0.73;0.60;;;25.80;50.70;;;;;;5085910;28;20024;-60
2021/07/05 03:28:18;;;;;;;1.15;0.75;;;25.70;50.70;;;;;;5083300;28;20050;-60
2021/07/05 03:30:45;;;;;;;0.80;0.65;;;25.80;50.70;;;;;;5086047;28;20031;-61
2021/07/05 03:33:11;;;;;;;0.80;0.60;;;25.70;50.70;;;;;;5098361;28;20402;-60
2021/07/05 03:35:38;;;;;;;1.27;0.73;;;25.70;50.70;;;;;;5094716;28;20663;-61
2021/07/05 03:38:04;;;;;;;0.70;0.70;;;25.70;50.70;;;;;;5086605;28;20020;-60
2021/07/05 03:40:33;;;;;;;0.60;0.60;;;25.70;50.70;;;;;;5084996;28;20088;-61
2021/07/05 03:43:00;;;;;;;1.25;0.70;;;25.70;50.70;;;;;;5083308;28;20017;-61
2021/07/05 03:45:29;;;;;;;0.75;0.70;;;25.70;50.70;;;;;;5064221;28;20123;-60
2021/07/05 03:47:56;;;;;;;0.77;0.60;;;25.70;50.70;;;;;;5090326;28;20030;-60
2021/07/05 03:50:22;;;;;;;0.60;0.60;;;25.70;50.70;;;;;;5085402;28;20059;-61
2021/07/05 03:52:48;;;;;;;0.82;0.70;;;25.70;50.80;;;;;;5090113;28;20454;-62
2021/07/05 03:55:18;;;;;;;0.70;0.60;;;25.70;50.70;;;;;;5089052;28;20035;-60
2021/07/05 03:57:44;;;;;;;0.80;0.70;;;25.70;50.70;;;;;;5086743;28;20012;-60
2021/07/05 04:00:14;;;;;;;0.80;0.70;;;25.70;50.70;;;;;;5092631;28;20021;-61
2021/07/05 04:02:40;;;;;;;0.60;0.60;;;25.70;50.70;;;;;;5086082;28;20035;-61
2021/07/05 04:05:07;;;;;;;0.60;0.60;;;25.70;50.80;;;;;;5096670;28;20028;-60
2021/07/05 04:07:33;;;;;;;0.60;0.60;;;25.70;50.80;;;;;;5094674;28;20027;-61
2021/07/05 04:10:01;;;;;;;0.90;0.60;;;25.70;50.80;;;;;;5094708;28;20028;-60
2021/07/05 04:12:27;;;;;;;0.90;0.70;;;25.70;50.80;;;;;;5085080;28;20109;-60
2021/07/05 04:14:53;;;;;;;0.85;0.60;;;25.70;50.80;;;;;;5067372;28;20028;-61
2021/07/05 04:17:19;;;;;;;1.20;0.75;;;25.70;50.60;;;;;;5084790;28;20613;-60
2021/07/05 04:19:46;;;;;;;1.85;0.80;;;25.70;50.40;;;;;;5082732;28;20028;-61
2021/07/05 04:22:16;;;;;;;2.45;0.73;;;25.60;50.30;;;;;;5085110;28;20069;-61
2021/07/05 04:24:43;;;;;;;1.98;0.88;;;25.60;50.10;;;;;;5079640;28;20152;-61
2021/07/05 04:27:09;;;;;;;1.45;0.90;;;25.50;49.40;;;;;;5081810;28;20074;-60
2021/07/05 04:29:36;;;;;;;2.85;1.00;;;25.50;49.10;;;;;;5085342;28;20024;-60
2021/07/05 04:32:03;;;;;;;2.30;1.20;;;25.30;48.80;;;;;;5085266;28;20046;-60
2021/07/05 04:34:28;;;;;;;4.50;0.90;;;25.20;49.00;;;;;;5083016;28;20042;-60
2021/07/05 04:36:54;;;;;;;1.85;0.82;;;25.20;49.50;;;;;;5075146;28;20023;-60
2021/07/05 04:39:19;;;;;;;3.35;0.98;;;25.20;49.30;;;;;;5088675;28;20541;-61
2021/07/05 04:41:45;;;;;;;2.45;1.10;;;25.10;49.60;;;;;;5092084;28;20035;-60
2021/07/05 04:44:13;;;;;;;1.52;0.88;;;25.10;49.50;;;;;;5087026;28;20032;-60
2021/07/05 04:46:45;;;;;;;2.28;1.00;;;25.00;49.50;;;;;;5087030;28;20612;-60
2021/07/05 04:49:10;;;;;;;1.27;0.70;;;25.00;49.80;;;;;;5089442;28;20418;-62
2021/07/05 04:51:36;;;;;;;1.70;0.90;;;24.90;50.00;;;;;;5091805;28;20147;-60
2021/07/05 04:54:01;;;;;;;0.95;0.80;;;24.90;50.10;;;;;;5092344;28;20498;-60
2021/07/05 04:56:27;;;;;;;3.20;0.90;;;24.80;50.10;;;;;;5096539;28;20275;-60
2021/07/05 04:58:53;;;;;;;2.00;0.98;;;24.80;50.20;;;;;;5087166;28;20028;-61
2021/07/05 05:01:19;;;;;;;2.47;0.90;;;24.80;50.30;;;;;;5087846;28;20051;-60
2021/07/05 05:03:44;;;;;;;1.52;0.80;;;24.80;50.30;;;;;;5088044;28;20016;-60
2021/07/05 05:06:10;;;;;;;2.70;0.80;;;24.70;50.40;;;;;;5089669;28;20164;-60
2021/07/05 05:08:35;;;;;;;3.10;1.05;;;24.70;50.70;;;;;;5097221;28;20031;-61
2021/07/05 05:11:01;;;;;;;1.65;0.90;;;24.70;51.00;;;;;;5083985;28;20523;-61
2021/07/05 05:13:28;;;;;;;3.83;1.00;;;24.70;51.00;;;;;;5093411;28;20032;-60
2021/07/05 05:15:54;;;;;;;1.70;0.90;;;24.70;51.00;;;;;;5081285;28;20474;-60
2021/07/05 05:18:20;;;;;;;2.38;1.00;;;24.70;51.10;;;;;;5093552;28;20035;-60
2021/07/05 05:20:45;;;;;;;2.58;0.70;;;24.70;51.00;;;;;;5089527;28;20027;-61
2021/07/05 05:23:11;;;;;;;1.20;0.70;;;24.70;51.00;;;;;;5071710;28;20026;-61
2021/07/05 05:25:37;;;;;;;1.25;0.77;;;24.80;51.20;;;;;;5084382;28;20382;-59
2021/07/05 05:28:02;;;;;;;1.65;0.80;;;24.80;51.40;;;;;;5087275;28;20035;-60
2021/07/05 05:30:28;;;;;;;2.60;0.80;;;24.80;51.10;;;;;;5086639;28;20398;-60
2021/07/05 05:32:55;;;;;;;1.67;0.70;;;24.80;50.90;;;;;;5088144;28;20308;-61
2021/07/05 05:35:23;;;;;;;2.42;0.80;;;24.80;50.80;;;;;;5084194;28;20044;-62
2021/07/05 05:37:50;;;;;;;1.20;0.70;;;24.90;50.70;;;;;;5098776;28;20294;-57
2021/07/05 05:40:17;;;;;;;1.38;0.80;;;24.90;50.70;;;;;;5100691;28;20104;-59
2021/07/05 05:42:42;;;;;;;2.00;0.60;;;25.00;50.60;;;;;;5088762;28;20032;-59
2021/07/05 05:45:09;;;;;;;1.27;0.70;;;25.00;50.60;;;;;;5096669;28;20339;-58
2021/07/05 05:47:35;;;;;;;1.20;0.70;;;25.00;50.50;;;;;;5098729;28;20043;-57
2021/07/05 05:50:00;;;;;;;1.75;1.02;;;25.00;50.50;;;;;;5099306;28;20016;-59
2021/07/05 05:52:26;;;;;;;2.67;0.80;;;25.10;50.50;;;;;;5091299;28;20051;-57
2021/07/05 05:54:51;;;;;;;2.88;0.90;;;25.00;50.40;;;;;;5085451;28;20035;-60
2021/07/05 05:57:27;;;;;;;1.52;0.80;;;25.10;50.40;;;;;;5086343;28;20047;-59
2021/07/05 05:59:58;;;;;;;1.48;0.80;;;25.10;50.40;;;;;;5079662;28;20063;-59
2021/07/05 06:02:24;;;;;;;1.02;0.65;;;25.10;50.40;;;;;;5076677;28;20051;-59
2021/07/05 06:04:50;;;;;;;0.82;0.70;;;25.10;50.30;;;;;;5084813;28;20040;-60
2021/07/05 06:07:16;;;;;;;1.00;0.63;;;25.20;50.30;;;;;;5083505;28;20028;-60
2021/07/05 06:09:42;;;;;;;1.13;0.70;;;25.20;50.30;;;;;;5072653;28;20629;-60
2021/07/05 06:12:08;;;;;;;1.52;0.70;;;25.20;50.20;;;;;;5085187;28;20085;-59
2021/07/05 06:14:34;;;;;;;1.50;0.90;;;25.20;50.20;;;;;;5091526;28;20028;-59
2021/07/05 06:16:59;;;;;;;1.65;0.70;;;25.20;50.20;;;;;;5085448;28;20435;-58
2021/07/05 06:19:25;;;;;;;0.98;0.80;;;25.20;50.10;;;;;;5086054;28;20107;-59
2021/07/05 06:21:50;;;;;;;0.95;0.75;;;25.30;50.70;;;;;;5086286;28;20102;-60
2021/07/05 06:24:16;;;;;;;1.60;0.70;;;25.30;50.40;;;;;;5084047;28;20030;-58
2021/07/05 06:26:42;;;;;;;1.10;0.80;;;25.30;50.40;;;;;;5086437;28;20471;-57
2021/07/05 06:29:07;;;;;;;2.40;0.82;;;25.30;50.40;;;;;;5086084;28;20032;-60
2021/07/05 06:31:36;;;;;;;1.42;0.90;;;25.30;50.50;;;;;;5086399;28;20371;-58
2021/07/05 06:34:03;;;;;;;0.80;0.70;;;25.30;50.50;;;;;;5086177;28;20068;-59
2021/07/05 06:36:29;;;;;;;1.63;0.80;;;25.30;50.30;;;;;;5084794;28;20038;-59
2021/07/05 06:38:54;;;;;;;1.15;0.70;;;25.30;51.20;;;;;;5087091;28;20039;-59
2021/07/05 06:41:20;;;;;;;2.50;0.85;;;25.30;51.40;;;;;;5085839;28;20024;-60
2021/07/05 06:43:46;;;;;;;1.83;1.00;;;25.20;51.40;;;;;;5087858;28;20446;-59
2021/07/05 06:46:11;;;;;;;1.10;0.80;;;25.20;51.30;;;;;;5078354;28;20043;-56
2021/07/05 06:48:37;;;;;;;1.48;0.90;;;25.20;51.20;;;;;;5086548;28;20032;-59
2021/07/05 06:51:03;;;;;;;2.47;0.60;;;25.30;51.30;;;;;;5086092;28;20513;-59
2021/07/05 06:53:29;;;;;;;1.23;0.70;;;25.30;51.10;;;;;;5085958;28;20082;-59
2021/07/05 06:55:54;;;;;;;1.17;0.68;;;25.40;51.10;;;;;;5084767;28;20051;-57
2021/07/05 06:58:20;;;;;;;0.73;0.70;;;25.40;50.90;;;;;;5083320;28;20034;-59
2021/07/05 07:00:46;;;;;;;2.65;0.80;;;25.50;50.70;;;;;;5084267;28;20034;-59
2021/07/05 07:03:11;;;;;;;0.80;0.60;;;25.50;50.60;;;;;;5084835;28;20830;-58
2021/07/05 07:05:37;;;;;;;1.23;0.77;;;25.60;50.50;;;;;;5094178;28;20024;-58
2021/07/05 07:08:03;;;;;;;0.98;0.70;;;25.60;50.50;;;;;;5085865;28;20095;-60
2021/07/05 07:10:29;;;;;;;2.38;0.60;;;25.70;50.60;;;;;;5082108;28;20471;-57
2021/07/05 07:12:55;;;;;;;0.55;0.55;;;25.70;50.40;;;;;;5084835;28;20024;-58
2021/07/05 07:15:35;;;;;;;0.85;0.60;;;25.70;50.20;;;;;;5083624;28;20028;-57
2021/07/05 07:20:27;;;;;;;0.98;0.60;;;25.70;50.30;;;;;;5085287;28;20118;-58
2021/07/05 07:22:53;;;;;;;0.55;0.50;;;25.80;50.30;;;;;;5085754;28;20055;-57
2021/07/05 07:25:19;;;;;;;1.02;0.60;;;25.80;50.60;;;;;;5079713;28;20024;-57
2021/07/05 07:27:45;;;;;;;1.35;0.68;;;25.80;50.40;;;;;;5084868;28;20103;-58
2021/07/05 07:30:13;;;;;;;0.77;0.50;;;25.80;50.20;;;;;;5085195;28;20424;-59
2021/07/05 07:32:39;;;;;;;1.80;0.70;;;25.90;50.30;;;;;;5093307;28;20512;-58
2021/07/05 07:35:06;;;;;;;1.33;0.60;;;25.90;50.20;;;;;;5083001;28;20020;-59
2021/07/05 07:37:32;;;;;;;1.15;0.60;;;25.90;50.20;;;;;;5084272;28;20035;-58
2021/07/05 07:40:02;;;;;;;1.33;0.70;;;25.90;50.10;;;;;;5086544;28;20151;-59
2021/07/05 07:42:27;;;;;;;0.60;0.60;;;26.00;50.10;;;;;;5090849;28;20008;-53
2021/07/05 07:44:53;;;;;;;0.60;0.60;;;26.00;50.00;;;;;;5083071;28;20104;-58
2021/07/05 07:47:18;;;;;;;1.30;0.80;;;26.00;50.00;;;;;;5085162;28;20028;-56
2021/07/05 07:49:45;;;;;;;0.73;0.68;;;26.00;50.00;;;;;;5083945;28;20028;-58
2021/07/05 07:52:10;;;;;;;0.93;0.57;;;26.00;50.00;;;;;;5085619;28;20032;-56
2021/07/05 07:54:36;;;;;;;1.20;0.60;;;26.00;50.00;;;;;;5087861;28;20022;-54
2021/07/05 07:57:02;;;;;;;1.25;0.60;;;26.00;49.90;;;;;;5099043;28;20024;-58
2021/07/05 07:59:28;;;;;;;1.58;0.77;;;26.00;51.60;;;;;;5088668;28;20061;-59
2021/07/05 08:01:54;;;;;;;1.50;0.90;;;26.00;52.30;;;;;;5078832;28;20486;-58
2021/07/05 08:04:19;;;;;;;2.42;0.80;;;26.10;53.10;;;;;;5090524;28;20024;-62
2021/07/05 08:06:45;;;;;;;1.30;0.70;;;26.10;52.60;;;;;;5089573;28;20032;-61
2021/07/05 08:09:11;;;;;;;1.55;0.80;;;26.10;52.40;;;;;;5088823;28;20032;-62
2021/07/05 08:11:38;;;;;;;1.20;0.60;;;26.10;52.20;;;;;;5093307;28;20040;-58
2021/07/05 08:14:07;;;;;;;0.55;0.52;;;26.20;51.90;;;;;;5095372;28;20436;-60
2021/07/05 08:16:34;;;;;;;0.95;0.57;;;26.20;51.80;;;;;;5097010;28;20047;-58
2021/07/05 08:18:59;;;;;;;0.60;0.60;;;26.30;51.60;;;;;;5096547;28;20030;-60
2021/07/05 08:21:25;;;;;;;0.85;0.60;;;26.30;51.60;;;;;;5092933;28;20028;-57
2021/07/05 08:23:51;;;;;;;0.60;0.60;;;26.40;51.50;;;;;;5086762;28;20117;-58
2021/07/05 08:26:18;;;;;;;1.52;0.60;;;26.40;51.40;;;;;;5091958;28;20385;-57
2021/07/05 08:28:45;;;;;;;0.88;0.60;;;26.50;51.60;;;;;;5090179;28;20694;-57
2021/07/05 08:31:11;;;;;;;1.05;0.60;;;26.50;51.50;;;;;;5091146;28;20032;-58
2021/07/05 08:33:37;;;;;;;0.50;0.50;;;26.50;51.30;;;;;;5095353;28;20101;-58
2021/07/05 08:36:04;;;;;;;0.85;0.60;;;26.60;51.30;;;;;;5087519;28;20040;-58
2021/07/05 08:38:31;;;;;;;0.93;0.50;;;26.50;51.10;;;;;;5081287;28;20012;-59
2021/07/05 08:40:58;;;;;;;1.25;0.70;;;26.60;51.10;;;;;;5089637;28;20027;-59
2021/07/05 08:43:27;;;;;;;0.90;0.60;;;26.60;51.20;;;;;;5099994;28;20028;-58
2021/07/05 08:46:02;;;;;;;;;;;26.60;51.30;;;;;;5101997;28;20023;-60
2021/07/05 08:48:29;;;;;;;;;;;26.70;51.30;;;;;;5102298;28;19919;-54
2021/07/05 08:50:55;;;;;;;;;;;26.70;51.30;;;;;;5088905;28;19912;-55
2021/07/05 08:53:21;;;;;;;;;;;26.70;51.10;;;;;;5088662;28;19907;-56
2021/07/05 08:55:46;;;;;;;;;;;26.70;51.00;;;;;;5086086;28;19926;-58
2021/07/05 08:58:12;;;;;;;;;;;26.80;50.80;;;;;;5088867;28;20246;-58
2021/07/05 09:00:37;;;;;;;;;;;26.80;51.00;;;;;;5090280;28;19940;-55
2021/07/05 09:03:03;;;;;;;;;;;26.80;50.80;;;;;;5086146;28;19950;-59
2021/07/05 09:05:29;;;;;;;;;;;26.80;50.80;;;;;;5095514;28;20260;-59
2021/07/05 09:07:59;;;;;;;;;;;26.90;50.70;;;;;;5096155;28;20320;-55
2021/07/05 09:10:25;;;;;;;;;;;26.90;50.60;;;;;;5088036;28;19912;-58
2021/07/05 09:13:23;;;;;;;;;;;26.90;50.60;;;;;;5085979;28;19916;-55
2021/07/05 09:15:49;;;;;;;;;;;26.90;50.60;;;;;;5041460;28;20021;-58
2021/07/05 09:18:23;;;;;;;;;;;26.90;50.40;;;;;;5088025;28;19930;-56
2021/07/05 09:20:50;;;;;;;;;;;27.00;50.50;;;;;;5087710;28;20297;-58
2021/07/05 09:23:15;;;;;;;;;;;27.00;50.50;;;;;;5087709;28;19916;-59
2021/07/05 09:25:46;;;;;;;;;;;27.00;50.60;;;;;;5087529;28;20396;-58
2021/07/05 09:28:12;;;;;;;;;;;27.00;50.40;;;;;;5086763;28;19915;-58
2021/07/05 09:30:42;;;;;;;;;;;27.00;50.40;;;;;;5091603;28;19965;-58
2021/07/05 09:33:16;;;;;;;;;;;27.10;50.40;;;;;;5087105;28;20014;-58
2021/07/05 09:35:42;;;;;;;;;;;27.10;50.10;;;;;;5087049;28;19912;-57
2021/07/05 09:38:08;;;;;;;;;;;27.10;50.20;;;;;;5089335;28;19908;-58
2021/07/05 09:40:33;;;;;;;;;;;27.10;49.70;;;;;;5087149;28;20347;-57
2021/07/05 09:42:59;;;;;;;;;;;27.10;49.50;;;;;;5088697;28;19923;-60
2021/07/05 09:45:32;;;;;;;;;;;27.10;49.30;;;;;;5086824;28;20351;-61
2021/07/05 09:48:13;;;;;;;;;;;27.20;49.20;;;;;;5083378;28;19908;-55
2021/07/05 09:50:39;;;;;;;;;;;27.20;49.00;;;;;;5092276;28;19920;-56
2021/07/05 09:53:23;;;;;;;;;;;27.20;49.10;;;;;;5086356;28;20292;-60
2021/07/05 09:55:48;;;;;;;;;;;27.20;49.10;;;;;;5087092;28;19972;-59
2021/07/05 09:58:14;;;;;;;;;;;27.20;49.10;;;;;;5089387;28;19912;-60
2021/07/05 10:00:39;;;;;;;;;;;27.20;48.90;;;;;;5101085;28;19918;-57
2021/07/05 10:03:09;;;;;;;;;;;27.20;48.90;;;;;;5086343;28;19904;-58
2021/07/05 10:05:35;;;;;;;;;;;27.10;48.80;;;;;;5086642;28;19908;-58
2021/07/05 10:08:02;;;;;;;;;;;27.20;48.90;;;;;;5087051;28;19904;-56
2021/07/05 10:10:28;;;;;;;;;;;27.10;48.80;;;;;;5089274;28;20112;-55
2021/07/05 10:12:55;;;;;;;;;;;27.10;48.80;;;;;;5085809;28;20318;-60
2021/07/05 10:15:22;;;;;;;;;;;27.10;48.90;;;;;;5085917;28;19912;-58
2021/07/05 10:17:49;;;;;;;;;;;27.10;48.80;;;;;;5098219;28;19912;-55
2021/07/05 10:20:19;;;;;;;;;;;27.10;48.80;;;;;;5087613;28;20367;-59
2021/07/05 10:22:46;;;;;;;;;;;27.10;48.80;;;;;;5087710;28;20003;-59
2021/07/05 10:25:12;;;;;;;;;;;27.10;48.80;;;;;;5074682;28;19920;-59
2021/07/05 10:27:37;;;;;;;;;;;27.10;48.80;;;;;;5089741;28;19908;-59
2021/07/05 10:30:05;;;;;;;;;;;27.10;48.80;;;;;;5086401;28;19945;-60
2021/07/05 10:32:30;;;;;;;;;;;27.00;48.80;;;;;;5087055;28;19900;-59
2021/07/05 10:34:56;;;;;;;;;;;27.00;48.80;;;;;;5085296;28;19930;-59
2021/07/05 10:37:43;;;;;;;;;;;27.00;48.80;;;;;;5082359;28;20342;-60
2021/07/05 10:40:10;;;;;;;;;;;27.00;48.80;;;;;;5079024;28;19935;-59
2021/07/05 10:42:37;;;;;;;;;;;27.00;48.90;;;;;;5089792;28;19908;-59
2021/07/05 10:45:04;;;;;;;;;;;27.00;49.50;;;;;;5087007;28;19919;-59
2021/07/05 10:47:39;;;;;;;;;;;27.00;50.00;;;;;;5072869;28;19908;-58
2021/07/05 10:50:05;;;;;;;;;;;27.00;50.30;;;;;;5089049;28;19968;-59
2021/07/05 10:52:46;;;;;;;;;;;27.10;50.40;;;;;;5088204;28;19923;-59
2021/07/05 10:55:32;;;;;;;;;;;27.10;51.10;;;;;;5086463;28;19923;-60
2021/07/05 10:57:58;;;;;;;;;;;27.10;50.70;;;;;;5084230;28;19934;-58
2021/07/05 11:00:23;;;;;;;;;;;27.10;50.60;;;;;;5087434;28;19920;-59
2021/07/05 11:02:50;;;;;;;;;;;27.20;50.50;;;;;;5089295;28;19992;-59
2021/07/05 11:05:27;;;;;;;;;;;27.20;50.40;;;;;;5069404;28;19995;-60
2021/07/05 11:07:55;;;;;;;;;;;27.20;50.30;;;;;;5087404;28;20028;-61
2021/07/05 11:10:27;;;;;;;;;;;27.20;50.10;;;;;;5089149;28;19912;-61
2021/07/05 11:13:01;;;;;;;;;;;27.20;50.10;;;;;;5090517;28;20056;-61
2021/07/05 11:15:45;;;;;;;;;;;27.30;50.10;;;;;;5099094;28;19939;-61
2021/07/05 11:18:10;;;;;;;;;;;27.30;50.00;;;;;;5082882;28;20299;-59
2021/07/05 11:20:36;;;;;;;;;;;27.30;50.00;;;;;;5087446;28;19908;-61
2021/07/05 11:23:02;;;;;;;;;;;27.30;50.00;;;;;;5086739;28;19927;-61
2021/07/05 11:25:28;;;;;;;;;;;27.40;50.00;;;;;;5086472;28;20277;-61
2021/07/05 11:27:54;;;;;;;;;;;27.30;49.90;;;;;;5081747;28;19972;-62
2021/07/05 11:30:33;;;;;;;;;;;27.40;50.00;;;;;;5083538;28;19912;-61
2021/07/05 11:33:02;;;;;;;;;;;27.40;49.90;;;;;;5081339;28;19923;-57
2021/07/05 11:35:30;;;;;;;;;;;27.40;49.70;;;;;;5084870;28;19991;-60
2021/07/05 11:37:57;;;;;;;;;;;27.40;49.70;;;;;;5079804;28;20339;-56
2021/07/05 11:40:38;;;;;;;;;;;27.40;49.60;;;;;;5084181;28;20441;-61
2021/07/05 11:43:03;;;;;;;;;;;27.50;49.60;;;;;;5086558;28;20415;-61
2021/07/05 11:45:58;;;;;;;;;;;27.50;49.70;;;;;;5082478;28;19951;-62
2021/07/05 11:48:39;;;;;;;;;;;27.50;49.60;;;;;;5055532;28;20010;-61
2021/07/05 11:51:17;;;;;;;;;;;27.50;49.50;;;;;;5080998;28;20002;-61
2021/07/05 11:53:50;;;;;;;;;;;27.50;49.50;;;;;;5077291;28;19923;-61
2021/07/05 11:56:25;;;;;;;;;;;27.50;49.50;;;;;;5085938;28;19912;-61
2021/07/05 11:58:51;;;;;;;;;;;27.60;49.50;;;;;;5087921;28;19908;-62
2021/07/05 12:01:16;;;;;;;;;;;27.50;49.40;;;;;;5086782;28;19912;-61
2021/07/05 12:03:55;;;;;;;;;;;27.60;49.40;;;;;;5090503;28;20358;-62
2021/07/05 12:06:21;;;;;;;;;;;27.60;49.30;;;;;;5089978;28;20370;-61
2021/07/05 12:09:00;;;;;;;;;;;27.60;49.30;;;;;;5091023;28;20021;-61
2021/07/05 12:11:37;;;;;;;;;;;27.60;49.20;;;;;;5090681;28;19908;-60
2021/07/05 12:14:04;;;;;;;;;;;27.60;49.20;;;;;;5087369;28;20618;-61
2021/07/05 12:16:29;;;;;;;;;;;27.60;49.20;;;;;;5088753;28;19924;-61
2021/07/05 12:18:58;;;;;;;;;;;27.70;49.20;;;;;;5091332;28;19916;-62
2021/07/05 12:21:34;;;;;;;;;;;27.70;49.20;;;;;;5090546;28;19976;-61
2021/07/05 12:24:10;;;;;;;;;;;27.70;49.40;;;;;;5090425;28;19947;-61
2021/07/05 12:26:46;;;;;;;;;;;27.70;49.10;;;;;;5090138;28;20377;-62
2021/07/05 12:29:15;;;;;;;;;;;27.70;49.10;;;;;;5088983;28;19959;-61
2021/07/05 12:32:00;;;;;;;;;;;27.70;49.10;;;;;;5089869;28;20357;-60
2021/07/05 12:34:35;;;;;;;;;;;27.70;49.00;;;;;;5086925;28;19912;-61
2021/07/05 12:37:00;;;;;;;;;;;27.70;48.70;;;;;;5088868;28;19957;-60
2021/07/05 12:39:26;;;;;;;;;;;27.70;48.80;;;;;;5088529;28;20318;-59
2021/07/05 12:41:51;;;;;;;;;;;27.70;48.70;;;;;;5091755;28;19911;-60
2021/07/05 12:44:17;;;;;;;;;;;27.70;48.70;;;;;;5086712;28;19934;-61
2021/07/05 12:46:43;;;;;;;;;;;27.80;48.70;;;;;;5088934;28;19980;-61
2021/07/05 12:49:09;;;;;;;;;;;27.80;48.70;;;;;;5088533;28;19927;-60
2021/07/05 12:51:35;;;;;;;;;;;27.80;48.70;;;;;;5088747;28;20583;-61
2021/07/05 12:54:00;;;;;;;;;;;27.80;48.70;;;;;;5086852;28;20112;-61
2021/07/05 12:56:30;;;;;;;;;;;27.80;48.60;;;;;;5087540;28;20460;-60
2021/07/05 12:58:56;;;;;;;;;;;27.90;48.70;;;;;;5084881;28;19997;-59
2021/07/05 13:01:25;;;;;;;;;;;27.80;48.70;;;;;;5088889;28;19916;-60
2021/07/05 13:03:57;;;;;;;;;;;27.80;48.80;;;;;;5095381;28;19904;-60
2021/07/05 13:06:23;;;;;;;;;;;27.80;48.70;;;;;;5084416;28;19912;-59
2021/07/05 13:08:56;;;;;;;;;;;27.90;48.80;;;;;;5090902;28;19922;-60
2021/07/05 13:11:22;;;;;;;;;;;27.90;49.40;;;;;;5085605;28;19923;-58
2021/07/05 13:13:47;;;;;;;;;;;27.90;48.70;;;;;;5090522;28;19911;-60
2021/07/05 13:16:19;;;;;;;;;;;27.90;48.80;;;;;;5089205;28;19924;-59
2021/07/05 13:18:45;;;;;;;;;;;27.90;48.60;;;;;;5089004;28;19937;-60